createdAt,value
2023-03-08T00:02:58.047Z,2.47
2023-03-08T00:07:59.641Z,2.05
2023-03-08T00:13:01.282Z,2.10
2023-03-08T00:18:03.269Z,2.25
2023-03-08T00:23:04.893Z,2.30
2023-03-08T00:28:06.527Z,3.20
2023-03-08T00:33:08.209Z,3.10
2023-03-08T00:38:09.837Z,3.30
2023-03-08T00:43:13.088Z,3.50
2023-03-08T00:48:14.904Z,2.65
2023-03-08T00:53:16.561Z,2.40
2023-03-08T00:58:18.386Z,1.88
2023-03-08T01:03:21.765Z,1.60
2023-03-08T01:08:25.652Z,2.10
2023-03-08T01:13:33.070Z,2.00
2023-03-08T01:23:36.302Z,2.10
2023-03-08T01:28:38.511Z,1.50
2023-03-08T01:33:42.241Z,1.50
2023-03-08T01:38:44.885Z,1.60
2023-03-08T01:43:47.312Z,1.33
2023-03-08T01:49:06.479Z,1.40
2023-03-08T01:54:14.205Z,1.40
2023-03-08T01:59:16.192Z,1.80
2023-03-08T02:04:17.921Z,1.90
2023-03-08T02:09:21.646Z,1.58
2023-03-08T02:14:25.086Z,1.90
2023-03-08T02:19:39.144Z,2.33
2023-03-08T02:24:41.022Z,1.75
2023-03-08T02:29:42.712Z,2.28
2023-03-08T02:34:44.404Z,1.70
2023-03-08T02:39:47.420Z,1.75
2023-03-08T02:44:49.365Z,2.00
2023-03-08T02:49:51.544Z,2.90
2023-03-08T02:54:53.937Z,2.72
2023-03-08T02:59:57.641Z,3.15
2023-03-08T03:05:08.079Z,2.47
2023-03-08T03:10:12.197Z,2.28
2023-03-08T03:15:13.902Z,2.72
2023-03-08T03:20:16.898Z,2.40
2023-03-08T03:25:18.901Z,3.17
2023-03-08T03:30:22.801Z,3.22
2023-03-08T03:35:25.021Z,3.10
2023-03-08T03:40:26.869Z,3.40
2023-03-08T03:45:34.073Z,4.15
2023-03-08T03:50:35.808Z,4.47
2023-03-08T03:55:43.524Z,4.85
2023-03-08T04:00:45.848Z,4.28
2023-03-08T04:06:15.972Z,5.30
2023-03-08T04:11:21.407Z,6.18
2023-03-08T04:16:28.777Z,7.43
2023-03-08T04:21:33.757Z,7.15
2023-03-08T04:26:36.485Z,8.05
2023-03-08T04:31:38.373Z,8.13
2023-03-08T04:36:44.108Z,8.63
2023-03-08T04:41:45.833Z,8.80
2023-03-08T04:46:56.276Z,8.68
2023-03-08T04:52:05.301Z,9.88
2023-03-08T04:57:09.528Z,9.55
2023-03-08T05:02:12.906Z,9.25
2023-03-08T05:07:14.993Z,12.32
2023-03-08T05:12:17.448Z,9.55
2023-03-08T05:17:29.355Z,10.20
2023-03-08T05:22:35.686Z,9.75
2023-03-08T05:27:42.560Z,11.35
2023-03-08T05:32:44.461Z,10.73
2023-03-08T05:37:46.359Z,10.35
2023-03-08T05:42:48.179Z,10.07
2023-03-08T05:47:50.707Z,9.35
2023-03-08T05:52:52.540Z,11.23
2023-03-08T05:57:58.620Z,11.10
2023-03-08T06:03:04.419Z,11.43
2023-03-08T06:08:09.594Z,11.63
2023-03-08T06:13:11.471Z,9.57
2023-03-08T06:18:13.308Z,9.13
2023-03-08T06:23:15.821Z,8.95
2023-03-08T06:28:18.909Z,8.77
2023-03-08T06:33:23.372Z,9.38
2023-03-08T06:38:27.519Z,9.48
2023-03-08T06:43:31.125Z,10.38
2023-03-08T06:48:34.619Z,10.93
2023-03-08T06:53:38.119Z,10.40
2023-03-08T06:58:41.585Z,10.95
2023-03-08T07:03:45.377Z,10.45
2023-03-08T07:08:47.055Z,11.40
2023-03-08T07:13:48.919Z,10.68
2023-03-08T07:18:50.742Z,11.52
2023-03-08T07:23:53.140Z,10.98
2023-03-08T07:28:55.922Z,12.25
2023-03-08T07:33:57.705Z,11.95
2023-03-08T07:38:59.548Z,11.70
2023-03-08T07:44:02.463Z,10.73
2023-03-08T07:49:04.290Z,11.52
2023-03-08T07:54:06.011Z,10.77
2023-03-08T07:59:07.810Z,12.25
2023-03-08T08:04:09.858Z,12.43
2023-03-08T08:09:14.836Z,12.00
2023-03-08T08:14:16.652Z,12.48
2023-03-08T08:19:18.419Z,14.48
2023-03-08T08:24:20.260Z,14.60
2023-03-08T08:29:22.517Z,13.13
2023-03-08T08:34:25.042Z,13.65
2023-03-08T08:39:26.813Z,15.45
2023-03-08T08:44:28.768Z,13.55
2023-03-08T08:49:30.689Z,14.73
2023-03-08T08:54:33.818Z,14.18
2023-03-08T08:59:35.495Z,14.50
2023-03-08T09:04:37.389Z,14.25
2023-03-08T09:09:39.289Z,14.27
2023-03-08T09:14:41.098Z,13.43
2023-03-08T09:19:42.838Z,14.70
2023-03-08T09:24:47.898Z,14.35
2023-03-08T09:29:49.641Z,15.50
2023-03-08T09:34:52.076Z,15.77
2023-03-08T09:39:54.201Z,16.30
2023-03-08T09:45:07.274Z,16.10
2023-03-08T09:50:15.866Z,17.05
2023-03-08T09:55:38.489Z,15.30
2023-03-08T10:00:41.410Z,15.88
2023-03-08T10:05:47.460Z,15.48
2023-03-08T10:10:55.158Z,14.23
2023-03-08T10:16:23.728Z,14.98
2023-03-08T10:21:27.493Z,13.07
2023-03-08T10:26:31.524Z,12.23
2023-03-08T10:31:33.810Z,11.95
2023-03-08T10:36:46.396Z,11.27
2023-03-08T10:42:00.129Z,13.77
2023-03-08T10:47:04.605Z,12.35
2023-03-08T10:52:25.280Z,12.43
2023-03-08T10:57:27.841Z,12.30
2023-03-08T11:02:29.687Z,12.85
2023-03-08T11:07:33.280Z,11.15
2023-03-08T11:12:34.981Z,13.40
2023-03-08T11:17:39.499Z,12.15
2023-03-08T11:22:45.626Z,11.75
2023-03-08T11:28:02.588Z,10.45
2023-03-08T11:33:04.470Z,11.20
2023-03-08T11:38:16.738Z,10.82
2023-03-08T11:43:31.027Z,11.75
2023-03-08T11:48:51.721Z,10.55
2023-03-08T11:54:02.496Z,12.05
2023-03-08T11:59:19.777Z,10.75
2023-03-08T12:04:36.887Z,12.88
2023-03-08T12:10:09.120Z,12.60
2023-03-08T12:15:27.504Z,12.77
2023-03-08T12:20:34.278Z,15.13
2023-03-08T12:25:40.415Z,15.60
2023-03-08T12:31:09.250Z,15.98
2023-03-08T12:36:14.716Z,17.38
2023-03-08T12:41:28.508Z,16.92
2023-03-08T12:47:07.482Z,16.42
2023-03-08T12:52:18.171Z,16.67
2023-03-08T12:57:23.930Z,18.13
2023-03-08T13:02:34.726Z,18.00
2023-03-08T13:07:52.785Z,17.88
2023-03-08T13:13:01.964Z,18.63
2023-03-08T13:18:08.552Z,17.73
2023-03-08T13:23:13.202Z,18.25
2023-03-08T13:28:20.337Z,18.02
2023-03-08T13:38:38.087Z,15.27
2023-03-08T13:43:39.686Z,12.90
2023-03-08T13:48:44.292Z,52.20
2023-03-08T13:53:46.706Z,14.05
2023-03-08T13:58:50.633Z,14.73
2023-03-08T14:03:58.324Z,12.05
2023-03-08T14:09:02.534Z,12.10
2023-03-08T14:14:09.506Z,10.30
2023-03-08T14:19:28.029Z,9.90
2023-03-08T14:24:33.049Z,10.07
2023-03-08T14:29:36.414Z,10.57
2023-03-08T14:34:42.415Z,11.02
2023-03-08T14:39:46.675Z,11.85
2023-03-08T14:44:53.766Z,10.55
2023-03-08T14:50:17.514Z,9.98
2023-03-08T14:55:34.271Z,9.85
2023-03-08T15:00:36.065Z,7.63
2023-03-08T15:05:39.784Z,7.20
2023-03-08T15:10:42.049Z,9.48
2023-03-08T15:15:43.943Z,6.82
2023-03-08T15:20:49.479Z,6.40
2023-03-08T15:25:52.240Z,6.72
2023-03-08T15:30:57.313Z,7.65
2023-03-08T15:35:59.152Z,7.43
2023-03-08T15:41:00.883Z,7.30
2023-03-08T15:46:02.562Z,8.57
2023-03-08T15:51:04.610Z,8.40
2023-03-08T15:56:06.398Z,8.60
2023-03-08T16:01:08.351Z,8.80
2023-03-08T16:06:12.059Z,10.35
2023-03-08T16:11:16.779Z,9.13
2023-03-08T16:16:20.237Z,9.55
2023-03-08T16:21:21.956Z,10.77
2023-03-08T16:26:24.322Z,12.90
2023-03-08T16:31:26.117Z,10.55
2023-03-08T16:36:27.810Z,12.60
2023-03-08T16:41:30.104Z,14.30
2023-03-08T16:46:32.933Z,16.00
2023-03-08T16:51:37.340Z,13.00
2023-03-08T16:56:42.379Z,15.55
2023-03-08T17:01:44.483Z,16.20
2023-03-08T17:06:46.646Z,16.77
2023-03-08T17:11:48.434Z,15.50
2023-03-08T17:16:50.105Z,16.58
2023-03-08T17:21:52.116Z,16.13
2023-03-08T17:26:54.241Z,19.73
2023-03-08T17:31:55.892Z,23.88
2023-03-08T17:36:57.874Z,18.75
2023-03-08T17:41:59.679Z,19.90
2023-03-08T17:47:01.519Z,19.08
2023-03-08T17:52:03.323Z,20.27
2023-03-08T17:57:05.193Z,22.23
2023-03-08T18:02:07.065Z,21.67
2023-03-08T18:07:08.718Z,20.23
2023-03-08T18:12:11.524Z,22.98
2023-03-08T18:17:13.233Z,22.83
2023-03-08T18:22:15.840Z,24.75
2023-03-08T18:27:17.657Z,21.48
2023-03-08T18:32:19.637Z,21.08
2023-03-08T18:37:21.552Z,23.05
2023-03-08T18:42:23.305Z,20.95
2023-03-08T18:47:25.102Z,22.60
2023-03-08T18:52:26.766Z,22.65
2023-03-08T18:57:28.481Z,20.48
2023-03-08T19:02:30.467Z,23.65
2023-03-08T19:07:32.422Z,23.38
2023-03-08T19:12:37.280Z,23.60
2023-03-08T19:17:39.049Z,24.85
2023-03-08T19:22:41.126Z,25.38
2023-03-08T19:27:43.194Z,25.65
2023-03-08T19:32:44.936Z,25.45
2023-03-08T19:37:46.801Z,25.27
2023-03-08T19:42:51.554Z,28.08
2023-03-08T19:47:53.176Z,27.38
2023-03-08T19:52:55.100Z,28.70
2023-03-08T19:57:56.799Z,28.50
2023-03-08T20:02:59.473Z,29.08
2023-03-08T20:08:01.220Z,29.48
2023-03-08T20:13:03.415Z,27.50
2023-03-08T20:18:05.124Z,24.90
2023-03-08T20:23:07.066Z,26.75
2023-03-08T20:28:10.109Z,25.95
2023-03-08T20:33:11.842Z,26.42
2023-03-08T20:38:13.737Z,26.40
2023-03-08T20:43:15.500Z,27.13
2023-03-08T20:48:17.287Z,30.30
2023-03-08T20:53:18.957Z,27.98
2023-03-08T20:58:21.201Z,29.23
2023-03-08T21:03:23.102Z,31.63
2023-03-08T21:08:24.926Z,31.65
2023-03-08T21:13:26.521Z,31.98
2023-03-08T21:18:28.229Z,30.67
2023-03-08T21:23:29.962Z,29.15
2023-03-08T21:28:31.574Z,29.95
2023-03-08T21:33:33.177Z,32.38
2023-03-08T21:38:34.876Z,31.73
2023-03-08T21:43:36.519Z,32.58
2023-03-08T21:48:38.216Z,29.88
2023-03-08T21:53:40.415Z,32.53
2023-03-08T21:58:42.966Z,31.88
2023-03-08T22:03:44.563Z,34.50
2023-03-08T22:08:46.836Z,32.60
2023-03-08T22:13:50.807Z,35.92
2023-03-08T22:18:54.756Z,34.97
2023-03-08T22:23:58.391Z,35.40
2023-03-08T22:29:00.185Z,32.78
2023-03-08T22:34:01.904Z,34.17
2023-03-08T22:39:03.613Z,33.15
2023-03-08T22:44:07.586Z,37.35
2023-03-08T22:49:14.039Z,35.10
2023-03-08T22:54:21.756Z,34.65
2023-03-08T22:59:25.586Z,32.70
2023-03-08T23:04:27.340Z,34.08
2023-03-08T23:09:29.184Z,33.90
2023-03-08T23:14:30.906Z,35.20
2023-03-08T23:19:32.531Z,33.60
2023-03-08T23:24:34.386Z,34.78
2023-03-08T23:29:36.271Z,35.03
2023-03-08T23:34:38.026Z,33.38
2023-03-08T23:39:39.641Z,33.75
2023-03-08T23:44:41.310Z,34.53
2023-03-08T23:49:42.939Z,33.92
2023-03-08T23:54:44.557Z,33.72
2023-03-08T23:59:46.263Z,32.53
